createdAt,value
2019-01-11T00:00:52.531Z,-1.70
2019-01-11T00:03:21.017Z,-1.80
2019-01-11T00:05:49.748Z,-1.90
2019-01-11T00:08:18.321Z,-1.80
2019-01-11T00:10:46.869Z,-1.90
2019-01-11T00:13:16.666Z,-1.90
2019-01-11T00:15:45.206Z,-1.90
2019-01-11T00:18:13.812Z,-1.90
2019-01-11T00:20:49.786Z,-1.80
2019-01-11T00:23:14.229Z,-1.60
2019-01-11T00:25:42.707Z,-1.80
2019-01-11T00:28:11.345Z,-1.80
2019-01-11T00:30:39.955Z,-1.80
2019-01-11T00:33:11.593Z,-1.90
2019-01-11T00:35:40.166Z,-1.80
2019-01-11T00:38:08.819Z,-1.80
2019-01-11T00:40:37.304Z,-1.90
2019-01-11T00:43:05.849Z,-2.00
2019-01-11T00:45:34.545Z,-2.10
2019-01-11T00:48:04.779Z,-2.10
2019-01-11T00:50:33.316Z,-2.10
2019-01-11T00:53:01.906Z,-2.20
2019-01-11T00:55:30.471Z,-2.20
2019-01-11T00:57:59.263Z,-2.20
2019-01-11T01:00:27.949Z,-2.20
2019-01-11T01:02:56.582Z,-2.20
2019-01-11T01:05:25.576Z,-2.20
2019-01-11T01:07:56.076Z,-2.10
2019-01-11T01:10:24.917Z,-1.90
2019-01-11T01:12:53.529Z,-1.90
2019-01-11T01:15:24.346Z,-1.90
2019-01-11T01:17:52.887Z,-2.00
2019-01-11T01:20:22.061Z,-2.10
2019-01-11T01:22:51.464Z,-2.20
2019-01-11T01:25:20.213Z,-2.20
2019-01-11T01:27:48.995Z,-2.20
2019-01-11T01:30:19.279Z,-2.20
2019-01-11T01:32:50.243Z,-2.20
2019-01-11T01:35:18.884Z,-2.10
2019-01-11T01:37:48.139Z,-1.90
2019-01-11T01:40:17.596Z,-1.90
2019-01-11T01:42:47.592Z,-2.00
2019-01-11T01:45:17.944Z,-2.10
2019-01-11T01:47:47.237Z,-2.20
2019-01-11T01:50:15.883Z,-2.10
2019-01-11T01:52:45.973Z,-2.10
2019-01-11T01:55:15.448Z,-2.10
2019-01-11T01:57:44.096Z,-2.10
2019-01-11T02:00:15.715Z,-2.20
2019-01-11T02:02:44.887Z,-2.10
2019-01-11T02:05:16.086Z,-2.10
2019-01-11T02:07:44.672Z,-2.20
2019-01-11T02:10:14.900Z,-2.30
2019-01-11T02:12:44.269Z,-2.30
2019-01-11T02:15:13.949Z,-2.10
2019-01-11T02:17:44.239Z,-2.10
2019-01-11T02:20:17.495Z,-2.00
2019-01-11T02:22:46.247Z,-2.00
2019-01-11T02:25:15.200Z,-2.10
2019-01-11T02:27:46.199Z,-2.10
2019-01-11T02:30:21.682Z,-2.20
2019-01-11T02:32:52.943Z,-2.20
2019-01-11T02:35:21.239Z,-2.10
2019-01-11T02:37:49.790Z,-2.10
2019-01-11T02:40:18.513Z,-2.00
2019-01-11T02:42:48.675Z,-2.00
2019-01-11T02:45:19.038Z,-2.00
2019-01-11T02:47:48.326Z,-2.10
2019-01-11T02:50:18.771Z,-2.10
2019-01-11T02:52:48.145Z,-2.20
2019-01-11T02:55:17.774Z,-2.20
2019-01-11T02:57:48.595Z,-2.30
2019-01-11T03:00:19.955Z,-2.20
2019-01-11T03:02:51.834Z,-2.30
2019-01-11T03:05:21.655Z,-2.20
2019-01-11T03:07:50.359Z,-2.30
2019-01-11T03:10:21.985Z,-2.20
2019-01-11T03:12:50.691Z,-2.30
2019-01-11T03:15:19.579Z,-2.30
2019-01-11T03:17:49.622Z,-2.30
2019-01-11T03:20:20.599Z,-2.40
2019-01-11T03:22:49.223Z,-2.50
2019-01-11T03:25:17.736Z,-2.50
2019-01-11T03:27:46.858Z,-2.60
2019-01-11T03:30:20.888Z,-2.70
2019-01-11T03:32:51.873Z,-2.70
2019-01-11T03:35:21.028Z,-2.70
2019-01-11T03:37:49.937Z,-2.70
2019-01-11T03:40:23.473Z,-2.70
2019-01-11T03:42:55.188Z,-2.60
2019-01-11T03:45:24.694Z,-2.60
2019-01-11T03:47:54.720Z,-2.60
2019-01-11T03:50:27.067Z,-2.70
2019-01-11T03:52:59.596Z,-2.80
2019-01-11T03:55:28.139Z,-2.80
2019-01-11T03:57:59.358Z,-2.70
2019-01-11T04:00:29.481Z,-2.60
2019-01-11T04:02:58.700Z,-2.40
2019-01-11T04:05:30.116Z,-2.50
2019-01-11T04:07:58.781Z,-2.60
2019-01-11T04:10:27.414Z,-2.70
2019-01-11T04:12:57.703Z,-2.70
2019-01-11T04:15:26.436Z,-2.70
2019-01-11T04:18:13.595Z,-2.80
2019-01-11T04:20:42.211Z,-2.70
2019-01-11T04:23:10.822Z,-2.60
2019-01-11T04:25:39.894Z,-2.60
2019-01-11T04:28:11.587Z,-2.70
2019-01-11T04:30:40.285Z,-2.80
2019-01-11T04:33:09.436Z,-2.80
2019-01-11T04:35:39.388Z,-2.90
2019-01-11T04:38:10.362Z,-2.90
2019-01-11T04:40:39.897Z,-2.80
2019-01-11T04:43:08.637Z,-2.80
2019-01-11T04:45:38.959Z,-2.90
2019-01-11T04:48:11.003Z,-3.00
2019-01-11T04:50:39.955Z,-3.10
2019-01-11T04:53:09.218Z,-3.20
2019-01-11T04:55:54.993Z,-3.20
2019-01-11T04:58:25.319Z,-3.20
2019-01-11T05:00:53.978Z,-3.10
2019-01-11T05:03:25.780Z,-3.10
2019-01-11T05:05:55.643Z,-3.20
2019-01-11T05:08:24.266Z,-3.20
2019-01-11T05:10:52.881Z,-3.30
2019-01-11T05:13:27.354Z,-3.30
2019-01-11T05:15:57.384Z,-3.30
2019-01-11T05:18:26.066Z,-3.40
2019-01-11T05:21:00.175Z,-3.40
2019-01-11T05:23:30.227Z,-3.40
2019-01-11T05:25:58.795Z,-3.50
2019-01-11T05:28:34.559Z,-3.60
2019-01-11T05:31:04.191Z,-3.60
2019-01-11T05:33:32.816Z,-3.70
2019-01-11T05:36:04.383Z,-3.70
2019-01-11T05:38:37.816Z,-3.70
2019-01-11T05:41:08.114Z,-3.80
2019-01-11T05:43:36.764Z,-3.80
2019-01-11T05:46:11.490Z,-3.90
2019-01-11T05:48:40.538Z,-3.90
2019-01-11T05:51:14.810Z,-3.90
2019-01-11T05:53:46.625Z,-3.90
2019-01-11T05:56:16.094Z,-3.90
2019-01-11T05:58:50.940Z,-3.90
2019-01-11T06:01:24.991Z,-3.90
2019-01-11T06:03:51.651Z,-3.90
2019-01-11T06:13:03.247Z,-4.10
2019-01-11T07:53:35.071Z,-4.90
2019-01-11T07:56:05.275Z,-4.60
2019-01-11T07:58:33.796Z,-4.20
2019-01-11T08:01:02.494Z,-3.90
2019-01-11T08:03:31.313Z,-3.30
2019-01-11T08:05:59.947Z,-2.70
2019-01-11T08:08:28.591Z,-2.00
2019-01-11T08:10:57.157Z,-1.60
2019-01-11T08:13:27.965Z,-1.30
2019-01-11T08:15:56.149Z,-0.80
2019-01-11T08:18:24.886Z,-0.60
2019-01-11T08:20:56.289Z,-0.40
2019-01-11T08:23:23.877Z,-0.40
2019-01-11T08:25:52.419Z,-0.30
2019-01-11T08:28:21.918Z,0.10
2019-01-11T08:30:50.486Z,0.70
2019-01-11T08:33:18.966Z,1.00
2019-01-11T08:35:47.509Z,1.40
2019-01-11T08:38:16.186Z,1.70
2019-01-11T08:40:44.711Z,1.60
2019-01-11T08:46:44.695Z,1.30
2019-01-11T08:49:13.404Z,1.20
2019-01-11T08:51:41.981Z,1.00
2019-01-11T08:54:10.540Z,0.60
2019-01-11T08:56:40.963Z,0.20
2019-01-11T08:59:10.198Z,0.20
2019-01-11T09:01:38.808Z,0.20
2019-01-11T09:04:07.392Z,0.40
2019-01-11T09:06:36.098Z,0.20
2019-01-11T09:09:07.572Z,0.30
2019-01-11T09:11:36.057Z,0.20
2019-01-11T09:14:05.054Z,0.10
2019-01-11T09:16:33.632Z,0.00
2019-01-11T09:19:03.453Z,-0.20
2019-01-11T09:21:32.088Z,-0.20
2019-01-11T09:24:00.593Z,-0.20
2019-01-11T09:26:29.218Z,-0.30
2019-01-11T09:28:57.820Z,-0.30
2019-01-11T09:31:26.377Z,-0.30
2019-01-11T09:33:54.857Z,-0.30
2019-01-11T09:36:23.589Z,-0.10
2019-01-11T09:38:52.134Z,0.20
2019-01-11T09:41:20.811Z,0.20
2019-01-11T09:43:49.270Z,0.10
2019-01-11T09:46:17.778Z,0.10
2019-01-11T09:48:46.235Z,0.20
2019-01-11T09:51:15.842Z,0.20
2019-01-11T09:53:44.641Z,0.30
2019-01-11T09:56:13.142Z,0.20
2019-01-11T09:58:41.668Z,0.10
2019-01-11T10:01:10.259Z,0.10
2019-01-11T10:03:38.782Z,0.00
2019-01-11T10:06:07.335Z,0.10
2019-01-11T10:08:35.938Z,0.00
2019-01-11T10:11:04.534Z,0.00
2019-01-11T10:13:33.028Z,0.00
2019-01-11T10:16:01.646Z,0.00
2019-01-11T10:18:30.196Z,0.00
2019-01-11T10:20:58.680Z,-0.10
2019-01-11T10:23:27.254Z,-0.10
2019-01-11T10:25:55.720Z,0.00
2019-01-11T10:28:24.295Z,0.00
2019-01-11T10:30:52.770Z,0.00
2019-01-11T10:33:21.351Z,0.10
2019-01-11T10:35:50.178Z,0.30
2019-01-11T10:38:18.650Z,0.40
2019-01-11T10:40:47.206Z,0.60
2019-01-11T10:43:15.679Z,0.60
2019-01-11T10:45:45.891Z,0.60
2019-01-11T10:48:14.599Z,0.40
2019-01-11T10:50:43.594Z,0.20
2019-01-11T10:53:13.992Z,0.00
2019-01-11T10:55:43.123Z,-0.30
2019-01-11T10:58:11.692Z,-0.20
2019-01-11T11:00:40.891Z,-0.20
2019-01-11T11:03:09.521Z,-0.20
2019-01-11T11:05:38.015Z,-0.20
2019-01-11T11:08:06.779Z,-0.20
2019-01-11T11:10:35.608Z,0.00
2019-01-11T11:13:04.348Z,0.00
2019-01-11T11:15:33.011Z,-0.20
2019-01-11T11:18:03.120Z,-0.20
2019-01-11T11:20:31.696Z,-0.10
2019-01-11T11:23:00.339Z,-0.10
2019-01-11T11:25:30.081Z,-0.10
2019-01-11T11:27:58.692Z,0.00
2019-01-11T11:30:27.201Z,0.00
2019-01-11T11:32:56.270Z,0.00
2019-01-11T11:35:24.992Z,-0.10
2019-01-11T11:37:54.027Z,-0.20
2019-01-11T11:40:23.754Z,-0.20
2019-01-11T11:42:53.227Z,-0.30
2019-01-11T11:45:21.935Z,-0.50
2019-01-11T11:47:50.493Z,-0.60
2019-01-11T11:50:19.655Z,-0.60
2019-01-11T11:52:53.703Z,-0.70
2019-01-11T11:55:27.259Z,-0.80
2019-01-11T11:57:57.810Z,-0.70
2019-01-11T12:00:28.113Z,-0.80
2019-01-11T12:02:56.801Z,-0.80
2019-01-11T12:05:28.907Z,-0.70
2019-01-11T12:07:57.528Z,-0.70
2019-01-11T12:10:26.667Z,-0.60
2019-01-11T12:12:55.169Z,-0.60
2019-01-11T12:15:23.670Z,-0.60
2019-01-11T12:17:52.260Z,-0.50
2019-01-11T12:20:24.245Z,-0.40
2019-01-11T12:22:56.971Z,-0.30
2019-01-11T12:25:25.525Z,-0.40
2019-01-11T12:27:54.223Z,-0.40
2019-01-11T12:30:22.895Z,-0.50
2019-01-11T12:32:53.154Z,-0.50
2019-01-11T12:35:21.737Z,-0.60
2019-01-11T12:37:53.230Z,-0.70
2019-01-11T12:40:24.305Z,-0.70
2019-01-11T12:42:52.982Z,-0.60
2019-01-11T12:45:23.648Z,-0.50
2019-01-11T12:47:52.283Z,-0.50
2019-01-11T12:50:23.246Z,-0.50
2019-01-11T12:52:51.973Z,-0.50
2019-01-11T12:55:20.649Z,-0.40
2019-01-11T12:57:49.421Z,-0.50
2019-01-11T13:00:19.747Z,-0.60
2019-01-11T13:02:51.910Z,-0.60
2019-01-11T13:05:24.001Z,-0.70
2019-01-11T13:07:54.225Z,-0.80
2019-01-11T13:10:23.740Z,-1.00
2019-01-11T13:12:53.982Z,-1.10
2019-01-11T13:15:32.903Z,-1.20
2019-01-11T13:18:04.833Z,-1.30
2019-01-11T13:20:36.771Z,-1.30
2019-01-11T13:23:09.451Z,-1.30
2019-01-11T13:25:40.623Z,-1.20
2019-01-11T13:28:09.229Z,-1.30
2019-01-11T13:30:40.945Z,-1.30
2019-01-11T13:33:10.678Z,-1.40
2019-01-11T13:35:39.346Z,-1.40
2019-01-11T13:38:08.138Z,-1.30
2019-01-11T13:40:39.880Z,-1.20
2019-01-11T13:43:14.584Z,-1.20
2019-01-11T13:45:43.145Z,-1.10
2019-01-11T13:48:13.390Z,-1.00
2019-01-11T13:50:42.621Z,-1.20
2019-01-11T13:53:11.431Z,-1.20
2019-01-11T13:55:40.091Z,-1.10
2019-01-11T13:58:11.353Z,-1.10
2019-01-11T14:00:52.687Z,-1.20
2019-01-11T14:03:17.715Z,-1.30
2019-01-11T14:05:48.881Z,-1.30
2019-01-11T14:08:20.262Z,-1.30
2019-01-11T14:10:58.841Z,-1.40
2019-01-11T14:19:44.616Z,-1.70
2019-01-11T14:22:22.705Z,-1.80
2019-01-11T14:24:52.354Z,-1.80
2019-01-11T14:31:23.988Z,-1.80
2019-01-11T14:43:55.995Z,-1.80
2019-01-11T15:01:55.248Z,-2.10
2019-01-11T15:20:23.163Z,-2.20
